createdAt,value
2019-03-17T00:00:43.459Z,21.80
2019-03-17T00:01:43.441Z,21.81
2019-03-17T00:02:43.537Z,21.77
2019-03-17T00:03:43.421Z,21.78
2019-03-17T00:04:43.409Z,21.83
2019-03-17T00:05:43.399Z,21.78
2019-03-17T00:06:43.395Z,21.77
2019-03-17T00:07:43.394Z,21.84
2019-03-17T00:08:43.496Z,21.81
2019-03-17T00:09:43.362Z,21.85
2019-03-17T00:10:43.347Z,21.84
2019-03-17T00:11:43.335Z,21.81
2019-03-17T00:12:43.320Z,21.88
2019-03-17T00:13:43.311Z,21.78
2019-03-17T00:14:43.596Z,21.88
2019-03-17T00:15:43.309Z,21.81
2019-03-17T00:16:43.281Z,21.89
2019-03-17T00:17:43.275Z,21.80
2019-03-17T00:18:43.259Z,21.80
2019-03-17T00:19:43.257Z,21.83
2019-03-17T00:20:43.382Z,21.81
2019-03-17T00:21:43.229Z,21.85
2019-03-17T00:22:43.217Z,21.84
2019-03-17T00:23:43.205Z,21.80
2019-03-17T00:24:43.200Z,21.80
2019-03-17T00:25:43.184Z,21.89
2019-03-17T00:26:43.273Z,21.81
2019-03-17T00:27:43.164Z,21.80
2019-03-17T00:28:44.366Z,21.81
2019-03-17T00:29:43.141Z,21.81
2019-03-17T00:30:43.133Z,21.84
2019-03-17T00:31:43.121Z,21.88
2019-03-17T00:32:43.274Z,21.88
2019-03-17T00:33:43.102Z,21.92
2019-03-17T00:34:44.338Z,21.80
2019-03-17T00:35:43.085Z,21.81
2019-03-17T00:36:43.066Z,21.81
2019-03-17T00:37:43.061Z,21.81
2019-03-17T00:38:43.143Z,21.81
2019-03-17T00:39:43.033Z,21.84
2019-03-17T00:40:43.022Z,21.85
2019-03-17T00:41:43.015Z,21.83
2019-03-17T00:42:43.004Z,21.83
2019-03-17T00:43:42.988Z,21.81
2019-03-17T00:44:43.234Z,21.84
2019-03-17T00:45:42.971Z,21.97
2019-03-17T00:46:42.960Z,21.81
2019-03-17T00:47:42.994Z,21.96
2019-03-17T00:48:42.940Z,21.81
2019-03-17T00:49:42.926Z,21.80
2019-03-17T00:50:43.082Z,21.84
2019-03-17T00:51:42.906Z,21.78
2019-03-17T00:52:42.901Z,21.84
2019-03-17T00:53:42.884Z,21.81
2019-03-17T00:54:42.881Z,21.81
2019-03-17T00:55:42.868Z,21.78
2019-03-17T00:56:42.952Z,21.81
2019-03-17T00:57:42.842Z,21.81
2019-03-17T00:58:42.836Z,21.77
2019-03-17T00:59:42.822Z,21.75
2019-03-17T01:00:42.806Z,21.84
2019-03-17T01:01:42.802Z,21.81
2019-03-17T01:02:43.067Z,21.88
2019-03-17T01:03:42.777Z,21.84
2019-03-17T01:04:42.767Z,21.83
2019-03-17T01:05:42.753Z,21.81
2019-03-17T01:06:42.744Z,21.89
2019-03-17T01:07:42.736Z,21.85
2019-03-17T01:08:42.831Z,21.81
2019-03-17T01:09:42.714Z,21.85
2019-03-17T01:10:42.719Z,21.85
2019-03-17T01:11:42.689Z,21.91
2019-03-17T01:12:44.883Z,21.84
2019-03-17T01:13:42.667Z,21.74
2019-03-17T01:14:42.793Z,21.89
2019-03-17T01:15:42.655Z,21.89
2019-03-17T01:16:42.649Z,21.91
2019-03-17T01:17:42.624Z,21.92
2019-03-17T01:18:42.612Z,21.83
2019-03-17T01:19:42.616Z,21.78
2019-03-17T01:20:42.698Z,21.85
2019-03-17T01:21:42.590Z,21.81
2019-03-17T01:22:42.573Z,21.83
2019-03-17T01:23:42.562Z,21.80
2019-03-17T01:24:42.549Z,21.81
2019-03-17T01:25:42.543Z,21.81
2019-03-17T01:26:42.626Z,21.89
2019-03-17T01:27:42.523Z,21.81
2019-03-17T01:28:43.193Z,21.81
2019-03-17T01:29:42.499Z,21.80
2019-03-17T01:30:42.486Z,21.83
2019-03-17T01:31:42.481Z,21.78
2019-03-17T01:32:42.668Z,21.81
2019-03-17T01:33:42.451Z,21.80
2019-03-17T01:34:42.441Z,21.78
2019-03-17T01:35:42.431Z,21.77
2019-03-17T01:36:42.420Z,21.77
2019-03-17T01:37:42.416Z,21.92
2019-03-17T01:38:42.811Z,21.84
2019-03-17T01:39:42.389Z,21.75
2019-03-17T01:40:42.382Z,21.75
2019-03-17T01:41:42.366Z,21.84
2019-03-17T01:42:42.357Z,21.83
2019-03-17T01:43:42.351Z,21.88
2019-03-17T01:44:42.442Z,21.80
2019-03-17T01:45:42.324Z,21.83
2019-03-17T01:46:42.318Z,21.81
2019-03-17T01:47:42.305Z,21.84
2019-03-17T01:48:42.294Z,21.81
2019-03-17T01:49:42.287Z,21.89
2019-03-17T01:50:42.445Z,21.78
2019-03-17T01:51:42.265Z,21.89
2019-03-17T01:52:42.254Z,21.80
2019-03-17T01:53:43.190Z,21.85
2019-03-17T01:54:42.227Z,21.81
2019-03-17T01:55:42.221Z,21.83
2019-03-17T01:56:42.316Z,21.81
2019-03-17T01:57:42.197Z,21.80
2019-03-17T01:58:42.190Z,21.83
2019-03-17T01:59:42.176Z,21.78
2019-03-17T02:00:42.166Z,21.85
2019-03-17T02:01:42.163Z,21.83
2019-03-17T02:02:42.302Z,21.83
2019-03-17T02:03:42.131Z,21.81
2019-03-17T02:04:42.126Z,21.85
2019-03-17T02:05:42.110Z,21.77
2019-03-17T02:06:42.100Z,21.80
2019-03-17T02:07:42.091Z,21.75
2019-03-17T02:08:42.294Z,21.88
2019-03-17T02:09:42.070Z,21.83
2019-03-17T02:10:42.059Z,21.85
2019-03-17T02:11:42.046Z,21.81
2019-03-17T02:12:42.034Z,21.89
2019-03-17T02:13:42.027Z,21.81
2019-03-17T02:14:42.126Z,21.83
2019-03-17T02:15:42.007Z,21.81
2019-03-17T02:16:41.996Z,21.96
2019-03-17T02:17:41.983Z,21.83
2019-03-17T02:18:41.969Z,21.81
2019-03-17T02:19:41.965Z,21.88
2019-03-17T02:20:42.152Z,21.85
2019-03-17T02:21:41.943Z,21.84
2019-03-17T02:22:41.930Z,21.97
2019-03-17T02:23:41.916Z,21.81
2019-03-17T02:24:41.912Z,21.83
2019-03-17T02:25:41.895Z,21.83
2019-03-17T02:26:41.991Z,21.97
2019-03-17T02:27:41.885Z,21.84
2019-03-17T02:28:41.862Z,21.89
2019-03-17T02:29:41.854Z,21.96
2019-03-17T02:30:41.842Z,21.92
2019-03-17T02:31:41.835Z,21.92
2019-03-17T02:32:42.005Z,21.81
2019-03-17T02:33:41.812Z,21.97
2019-03-17T02:34:41.817Z,21.83
2019-03-17T02:35:41.787Z,21.88
2019-03-17T02:36:41.778Z,21.85
2019-03-17T02:37:41.774Z,21.88
2019-03-17T02:38:41.859Z,21.81
2019-03-17T02:39:41.742Z,21.84
2019-03-17T02:40:41.734Z,21.89
2019-03-17T02:41:41.724Z,21.96
2019-03-17T02:42:41.731Z,21.85
2019-03-17T02:43:41.749Z,21.91
2019-03-17T02:44:41.879Z,21.91
2019-03-17T02:45:41.693Z,21.89
2019-03-17T02:46:41.791Z,21.91
2019-03-17T02:47:41.661Z,21.81
2019-03-17T02:48:41.657Z,21.89
2019-03-17T02:49:41.640Z,21.96
2019-03-17T02:50:41.743Z,21.92
2019-03-17T02:51:41.624Z,21.91
2019-03-17T02:52:41.613Z,22.00
2019-03-17T02:53:41.594Z,21.84
2019-03-17T02:54:41.587Z,21.89
2019-03-17T02:55:41.578Z,21.88
2019-03-17T02:56:41.672Z,21.92
2019-03-17T02:57:41.559Z,21.85
2019-03-17T02:58:41.541Z,21.94
2019-03-17T02:59:41.535Z,21.84
2019-03-17T03:00:41.532Z,21.88
2019-03-17T03:01:41.516Z,21.88
2019-03-17T03:02:41.872Z,21.85
2019-03-17T03:03:41.486Z,21.83
2019-03-17T03:04:41.481Z,21.78
2019-03-17T03:05:54.081Z,21.94
2019-03-17T03:06:42.459Z,21.88
2019-03-17T03:07:41.458Z,21.92
2019-03-17T03:08:41.527Z,21.89
2019-03-17T03:09:41.432Z,21.88
2019-03-17T03:10:41.417Z,21.97
2019-03-17T03:11:41.413Z,21.88
2019-03-17T03:12:41.409Z,21.92
2019-03-17T03:13:41.384Z,21.94
2019-03-17T03:14:41.502Z,21.78
2019-03-17T03:15:41.359Z,21.97
2019-03-17T03:16:41.355Z,21.88
2019-03-17T03:17:41.348Z,21.96
2019-03-17T03:18:41.334Z,21.92
2019-03-17T03:19:41.324Z,21.91
2019-03-17T03:20:41.500Z,21.91
2019-03-17T03:21:41.295Z,21.96
2019-03-17T03:22:41.287Z,21.80
2019-03-17T03:23:41.280Z,21.89
2019-03-17T03:24:41.261Z,21.99
2019-03-17T03:25:41.251Z,21.89
2019-03-17T03:26:41.338Z,21.91
2019-03-17T03:27:41.241Z,21.92
2019-03-17T03:28:41.224Z,21.83
2019-03-17T03:29:41.212Z,21.94
2019-03-17T03:30:41.206Z,21.92
2019-03-17T03:31:41.191Z,21.80
2019-03-17T03:32:41.285Z,21.96
2019-03-17T03:33:41.307Z,21.92
2019-03-17T03:34:41.154Z,21.89
2019-03-17T03:35:41.155Z,21.94
2019-03-17T03:36:41.138Z,21.84
2019-03-17T03:37:41.130Z,21.85
2019-03-17T03:38:41.209Z,21.89
2019-03-17T03:39:41.176Z,21.96
2019-03-17T03:40:41.087Z,21.97
2019-03-17T03:41:41.082Z,21.92
2019-03-17T03:42:41.064Z,21.97
2019-03-17T03:43:41.080Z,21.94
2019-03-17T03:44:41.236Z,21.89
2019-03-17T03:45:41.043Z,21.92
2019-03-17T03:46:41.026Z,21.96
2019-03-17T03:47:41.019Z,21.78
2019-03-17T03:48:41.002Z,21.88
2019-03-17T03:49:40.994Z,21.92
2019-03-17T03:50:41.093Z,21.88
2019-03-17T03:51:40.974Z,21.97
2019-03-17T03:52:40.965Z,21.92
2019-03-17T03:53:40.961Z,21.83
2019-03-17T03:54:40.942Z,21.97
2019-03-17T03:55:42.343Z,21.81
2019-03-17T03:56:41.017Z,21.85
2019-03-17T03:57:40.911Z,21.88
2019-03-17T03:58:40.906Z,21.91
2019-03-17T03:59:40.893Z,21.91
2019-03-17T04:00:40.876Z,21.89
2019-03-17T04:01:40.868Z,21.91
2019-03-17T04:02:41.693Z,21.89
2019-03-17T04:03:40.849Z,21.89
2019-03-17T04:04:40.836Z,21.97
2019-03-17T04:05:40.827Z,21.94
2019-03-17T04:06:40.813Z,21.99
2019-03-17T04:07:40.800Z,21.89
2019-03-17T04:08:40.989Z,21.92
2019-03-17T04:09:40.784Z,21.92
2019-03-17T04:10:40.766Z,21.96
2019-03-17T04:11:40.758Z,22.00
2019-03-17T04:12:40.743Z,21.92
2019-03-17T04:13:40.737Z,21.96
2019-03-17T04:14:40.829Z,21.92
2019-03-17T04:15:40.716Z,21.81
2019-03-17T04:16:40.703Z,21.97
2019-03-17T04:17:40.695Z,21.92
2019-03-17T04:18:40.681Z,21.94
2019-03-17T04:19:40.691Z,21.85
2019-03-17T04:20:40.771Z,21.85
2019-03-17T04:21:40.650Z,21.84
2019-03-17T04:22:40.643Z,21.85
2019-03-17T04:23:40.632Z,21.84
2019-03-17T04:24:40.618Z,21.94
2019-03-17T04:25:40.616Z,21.94
2019-03-17T04:26:40.702Z,22.00
2019-03-17T04:27:40.588Z,21.85
2019-03-17T04:28:40.571Z,21.94
2019-03-17T04:29:40.567Z,22.01
2019-03-17T04:30:40.556Z,21.96
2019-03-17T04:31:40.541Z,21.92
2019-03-17T04:32:40.745Z,21.91
2019-03-17T04:33:40.520Z,21.80
2019-03-17T04:34:40.508Z,21.94
2019-03-17T04:35:40.515Z,21.91
2019-03-17T04:36:40.871Z,21.89
2019-03-17T04:37:40.512Z,21.97
2019-03-17T04:38:43.652Z,21.91
2019-03-17T04:39:40.476Z,21.96
2019-03-17T04:40:40.446Z,21.88
2019-03-17T04:41:40.434Z,21.97
2019-03-17T04:42:40.423Z,21.94
2019-03-17T04:43:40.413Z,21.94
2019-03-17T04:44:40.504Z,21.97
2019-03-17T04:45:40.391Z,21.84
2019-03-17T04:46:40.381Z,21.94
2019-03-17T04:47:40.375Z,21.88
2019-03-17T04:48:40.384Z,21.94
2019-03-17T04:49:40.348Z,21.94
2019-03-17T04:50:40.437Z,21.91
2019-03-17T04:51:40.328Z,21.89
2019-03-17T04:52:40.374Z,21.94
2019-03-17T04:53:40.315Z,21.94
2019-03-17T04:54:40.296Z,21.96
2019-03-17T04:55:40.292Z,21.92
2019-03-17T04:56:40.596Z,21.88
2019-03-17T04:57:40.268Z,21.88
2019-03-17T04:58:40.252Z,21.88
2019-03-17T04:59:40.242Z,21.92
2019-03-17T05:00:40.231Z,21.97
2019-03-17T05:01:40.225Z,21.94
2019-03-17T05:02:40.395Z,21.99
2019-03-17T05:03:40.206Z,22.01
2019-03-17T05:04:40.189Z,21.94
2019-03-17T05:05:40.179Z,21.94
2019-03-17T05:06:51.765Z,21.99
2019-03-17T05:07:41.315Z,22.00
2019-03-17T05:08:40.148Z,21.99
2019-03-17T05:09:40.137Z,21.97
2019-03-17T05:10:40.128Z,22.01
2019-03-17T05:11:40.113Z,21.94
2019-03-17T05:12:40.110Z,21.97
2019-03-17T05:13:40.223Z,22.01
2019-03-17T05:14:40.086Z,22.01
2019-03-17T05:15:40.069Z,21.91
2019-03-17T05:16:40.062Z,21.97
2019-03-17T05:17:40.095Z,21.97
2019-03-17T05:18:40.045Z,22.00
2019-03-17T05:19:40.126Z,21.97
2019-03-17T05:20:40.022Z,21.96
2019-03-17T05:21:40.009Z,21.96
2019-03-17T05:22:39.997Z,21.94
2019-03-17T05:23:39.989Z,21.97
2019-03-17T05:24:39.979Z,21.94
2019-03-17T05:25:40.072Z,21.94
2019-03-17T05:26:39.955Z,21.97
2019-03-17T05:27:39.946Z,21.94
2019-03-17T05:28:39.939Z,22.03
2019-03-17T05:29:39.918Z,22.03
2019-03-17T05:30:39.910Z,22.00
2019-03-17T05:31:40.101Z,21.99
2019-03-17T05:32:40.698Z,22.01
2019-03-17T05:33:39.876Z,22.01
2019-03-17T05:34:39.868Z,22.01
2019-03-17T05:35:39.856Z,22.01
2019-03-17T05:36:39.853Z,21.96
2019-03-17T05:37:40.006Z,22.01
2019-03-17T05:38:39.824Z,22.03
2019-03-17T05:39:39.816Z,21.92
2019-03-17T05:40:39.811Z,22.06
2019-03-17T05:41:39.795Z,21.94
2019-03-17T05:42:40.824Z,22.01
2019-03-17T05:43:39.893Z,21.99
2019-03-17T05:44:39.760Z,22.03
2019-03-17T05:45:39.765Z,21.97
2019-03-17T05:46:39.766Z,22.03
2019-03-17T05:47:39.729Z,22.03
2019-03-17T05:48:39.724Z,22.06
2019-03-17T05:49:39.871Z,22.06
2019-03-17T05:50:39.704Z,21.99
2019-03-17T05:51:39.686Z,22.04
2019-03-17T05:52:39.676Z,22.03
2019-03-17T05:53:40.527Z,22.06
2019-03-17T05:54:39.657Z,22.03
2019-03-17T05:55:39.839Z,21.99
2019-03-17T05:56:39.654Z,22.06
2019-03-17T05:57:39.638Z,22.04
2019-03-17T05:58:39.608Z,22.07
2019-03-17T05:59:39.599Z,22.04
2019-03-17T06:00:39.590Z,22.03
2019-03-17T06:01:39.683Z,21.97
2019-03-17T06:02:39.571Z,21.99
2019-03-17T06:03:39.556Z,22.07
2019-03-17T06:04:39.543Z,22.07
2019-03-17T06:05:39.542Z,22.03
2019-03-17T06:06:39.535Z,22.08
2019-03-17T06:07:39.620Z,22.03
2019-03-17T06:08:39.506Z,21.99
2019-03-17T06:09:39.494Z,22.00
2019-03-17T06:10:39.479Z,22.01
2019-03-17T06:11:39.482Z,22.06
2019-03-17T06:12:39.479Z,22.03
2019-03-17T06:13:39.548Z,22.03
2019-03-17T06:14:39.444Z,22.03
2019-03-17T06:15:39.429Z,22.06
2019-03-17T06:16:39.419Z,22.12
2019-03-17T06:17:39.410Z,22.06
2019-03-17T06:18:39.397Z,22.08
2019-03-17T06:19:39.488Z,22.12
2019-03-17T06:20:39.374Z,22.12
2019-03-17T06:21:39.362Z,22.04
2019-03-17T06:22:39.352Z,22.01
2019-03-17T06:23:39.349Z,22.03
2019-03-17T06:24:39.330Z,22.04
2019-03-17T06:25:39.537Z,22.10
2019-03-17T06:26:39.310Z,22.10
2019-03-17T06:27:39.298Z,22.08
2019-03-17T06:28:39.285Z,22.08
2019-03-17T06:29:39.273Z,22.07
2019-03-17T06:30:39.272Z,22.04
2019-03-17T06:31:39.431Z,22.10
2019-03-17T06:32:39.248Z,22.01
2019-03-17T06:33:39.233Z,22.07
2019-03-17T06:34:39.227Z,22.07
2019-03-17T06:35:39.215Z,22.12
2019-03-17T06:36:39.210Z,22.08
2019-03-17T06:37:39.301Z,22.10
2019-03-17T06:38:39.178Z,22.08
2019-03-17T06:39:39.170Z,22.10
2019-03-17T06:40:39.166Z,22.07
2019-03-17T06:41:39.146Z,22.08
2019-03-17T06:42:39.164Z,22.07
2019-03-17T06:43:39.299Z,22.07
2019-03-17T06:44:39.118Z,22.12
2019-03-17T06:45:39.705Z,22.08
2019-03-17T06:46:39.089Z,22.06
2019-03-17T06:47:39.078Z,22.14
2019-03-17T06:48:39.071Z,22.14
2019-03-17T06:49:39.164Z,22.15
2019-03-17T06:50:39.045Z,22.15
2019-03-17T06:51:39.039Z,22.06
2019-03-17T06:52:39.030Z,22.12
2019-03-17T06:53:39.016Z,22.07
2019-03-17T06:54:39.004Z,22.15
2019-03-17T06:55:39.129Z,22.15
2019-03-17T06:56:38.985Z,22.12
2019-03-17T06:57:39.003Z,22.15
2019-03-17T06:58:38.958Z,22.06
2019-03-17T06:59:38.948Z,22.07
2019-03-17T07:00:38.937Z,22.06
2019-03-17T07:01:39.122Z,22.12
2019-03-17T07:02:38.929Z,22.10
2019-03-17T07:03:38.930Z,22.15
2019-03-17T07:04:38.893Z,22.08
2019-03-17T07:05:38.885Z,22.08
2019-03-17T07:06:38.877Z,22.14
2019-03-17T07:07:44.024Z,22.08
2019-03-17T07:08:39.850Z,22.10
2019-03-17T07:09:38.841Z,22.12
2019-03-17T07:10:38.835Z,22.07
2019-03-17T07:11:38.827Z,22.06
2019-03-17T07:12:38.811Z,22.15
2019-03-17T07:13:39.087Z,22.08
2019-03-17T07:14:38.790Z,22.08
2019-03-17T07:15:38.788Z,22.10
2019-03-17T07:16:38.769Z,22.10
2019-03-17T07:17:38.756Z,22.10
2019-03-17T07:18:38.747Z,22.06
2019-03-17T07:19:38.906Z,22.14
2019-03-17T07:20:38.727Z,22.12
2019-03-17T07:21:38.717Z,22.21
2019-03-17T07:22:38.710Z,22.15
2019-03-17T07:23:38.699Z,22.06
2019-03-17T07:24:38.680Z,22.07
2019-03-17T07:25:38.772Z,22.12
2019-03-17T07:26:38.665Z,22.07
2019-03-17T07:27:38.651Z,22.14
2019-03-17T07:28:38.635Z,22.15
2019-03-17T07:29:38.623Z,22.16
2019-03-17T07:30:38.614Z,22.07
2019-03-17T07:31:38.698Z,22.15
2019-03-17T07:32:38.598Z,22.12
2019-03-17T07:33:38.582Z,22.14
2019-03-17T07:34:38.572Z,22.08
2019-03-17T07:35:38.561Z,22.15
2019-03-17T07:36:38.554Z,22.12
2019-03-17T07:37:38.707Z,22.06
2019-03-17T07:38:38.530Z,22.08
2019-03-17T07:39:38.518Z,22.12
2019-03-17T07:40:38.509Z,22.06
2019-03-17T07:41:38.496Z,22.06
2019-03-17T07:42:38.488Z,22.14
2019-03-17T07:43:38.582Z,22.10
2019-03-17T07:44:38.471Z,22.08
2019-03-17T07:45:38.459Z,22.10
2019-03-17T07:46:38.445Z,22.08
2019-03-17T07:47:38.444Z,22.12
2019-03-17T07:48:38.427Z,22.08
2019-03-17T07:49:38.595Z,22.10
2019-03-17T07:50:38.408Z,22.15
2019-03-17T07:51:38.392Z,22.15
2019-03-17T07:52:38.379Z,22.18
2019-03-17T07:53:39.202Z,22.18
2019-03-17T07:54:38.366Z,22.07
2019-03-17T07:55:38.665Z,22.21
2019-03-17T07:56:38.335Z,22.26
2019-03-17T07:57:38.329Z,22.21
2019-03-17T07:58:38.315Z,22.14
2019-03-17T07:59:38.304Z,22.16
2019-03-17T08:00:38.294Z,22.14
2019-03-17T08:01:38.606Z,22.21
2019-03-17T08:02:38.275Z,22.14
2019-03-17T08:03:38.260Z,22.18
2019-03-17T08:04:43.086Z,22.21
2019-03-17T08:05:39.239Z,22.12
2019-03-17T08:06:38.230Z,22.30
2019-03-17T08:07:38.311Z,22.14
2019-03-17T08:08:38.339Z,22.16
2019-03-17T08:09:38.199Z,22.21
2019-03-17T08:10:38.185Z,22.31
2019-03-17T08:11:38.175Z,22.23
2019-03-17T08:12:38.163Z,22.26
2019-03-17T08:13:38.252Z,22.26
2019-03-17T08:14:38.149Z,22.26
2019-03-17T08:15:38.132Z,22.22
2019-03-17T08:16:38.118Z,22.25
2019-03-17T08:17:38.108Z,22.31
2019-03-17T08:18:38.101Z,22.18
2019-03-17T08:19:38.257Z,22.26
2019-03-17T08:20:38.084Z,22.26
2019-03-17T08:21:38.064Z,22.16
2019-03-17T08:22:38.053Z,22.25
2019-03-17T08:23:38.041Z,22.28
2019-03-17T08:24:38.038Z,22.21
2019-03-17T08:25:38.267Z,22.23
2019-03-17T08:26:38.013Z,22.21
2019-03-17T08:27:37.999Z,22.25
2019-03-17T08:28:37.987Z,22.22
2019-03-17T08:29:37.978Z,22.22
2019-03-17T08:30:38.709Z,22.22
2019-03-17T08:31:38.062Z,22.21
2019-03-17T08:32:40.979Z,22.16
2019-03-17T08:33:37.936Z,22.22
2019-03-17T08:34:37.924Z,22.21
2019-03-17T08:35:37.915Z,22.25
2019-03-17T08:36:37.902Z,22.30
2019-03-17T08:37:38.057Z,22.28
2019-03-17T08:38:37.881Z,22.28
2019-03-17T08:39:37.870Z,22.25
2019-03-17T08:40:37.859Z,22.23
2019-03-17T08:41:37.909Z,22.22
2019-03-17T08:42:37.836Z,22.23
2019-03-17T08:43:37.988Z,22.28
2019-03-17T08:44:37.816Z,22.22
2019-03-17T08:45:37.803Z,22.23
2019-03-17T08:46:37.792Z,22.28
2019-03-17T08:47:37.789Z,22.25
2019-03-17T08:48:37.770Z,22.28
2019-03-17T08:49:37.871Z,22.30
2019-03-17T08:50:37.772Z,22.30
2019-03-17T08:51:38.709Z,22.30
2019-03-17T08:52:38.711Z,22.37
2019-03-17T08:53:38.709Z,22.23
2019-03-17T08:54:37.707Z,22.34
2019-03-17T08:55:37.811Z,22.26
2019-03-17T08:56:37.692Z,22.31
2019-03-17T08:57:37.681Z,22.26
2019-03-17T08:58:37.660Z,22.34
2019-03-17T08:59:37.703Z,22.34
2019-03-17T09:00:37.638Z,22.34
2019-03-17T09:01:37.746Z,22.31
2019-03-17T09:02:37.623Z,22.30
2019-03-17T09:03:37.610Z,22.30
2019-03-17T09:04:37.607Z,22.26
2019-03-17T09:05:37.588Z,22.28
2019-03-17T09:06:37.579Z,22.30
2019-03-17T09:07:37.850Z,22.23
2019-03-17T09:08:37.555Z,22.23
2019-03-17T09:09:37.614Z,22.23
2019-03-17T09:10:37.535Z,22.31
2019-03-17T09:11:37.529Z,22.31
2019-03-17T09:12:37.514Z,22.30
2019-03-17T09:13:37.816Z,22.28
2019-03-17T09:14:37.511Z,22.26
2019-03-17T09:15:37.482Z,22.30
2019-03-17T09:16:37.474Z,22.30
2019-03-17T09:17:37.465Z,22.30
2019-03-17T09:18:37.450Z,22.25
2019-03-17T09:19:37.533Z,22.31
2019-03-17T09:20:37.424Z,22.37
2019-03-17T09:21:37.420Z,22.31
2019-03-17T09:22:37.402Z,22.22
2019-03-17T09:23:37.405Z,22.33
2019-03-17T09:24:37.384Z,22.31
2019-03-17T09:25:37.514Z,22.31
2019-03-17T09:26:37.362Z,22.30
2019-03-17T09:27:37.355Z,22.33
2019-03-17T09:28:37.340Z,22.31
2019-03-17T09:29:37.331Z,22.33
2019-03-17T09:30:37.317Z,22.26
2019-03-17T09:31:37.468Z,22.31
2019-03-17T09:32:37.298Z,22.34
2019-03-17T09:33:37.288Z,22.26
2019-03-17T09:34:37.278Z,22.33
2019-03-17T09:35:37.262Z,22.31
2019-03-17T09:36:37.253Z,22.25
2019-03-17T09:37:37.346Z,22.26
2019-03-17T09:38:46.878Z,22.25
2019-03-17T09:39:38.219Z,22.30
2019-03-17T09:40:37.207Z,22.31
2019-03-17T09:41:37.200Z,22.23
2019-03-17T09:42:37.184Z,22.25
2019-03-17T09:43:37.317Z,22.34
2019-03-17T09:44:37.165Z,22.23
2019-03-17T09:45:37.168Z,22.28
2019-03-17T09:46:37.144Z,22.30
2019-03-17T09:47:37.130Z,22.36
2019-03-17T09:48:37.130Z,22.36
2019-03-17T09:49:37.251Z,22.34
2019-03-17T09:50:37.104Z,22.30
2019-03-17T09:51:37.087Z,22.33
2019-03-17T09:52:37.075Z,22.30
2019-03-17T09:53:37.071Z,22.36
2019-03-17T09:54:37.707Z,22.34
2019-03-17T09:55:37.151Z,22.31
2019-03-17T09:56:37.040Z,22.36
2019-03-17T09:57:37.024Z,22.36
2019-03-17T09:58:37.012Z,22.34
2019-03-17T09:59:37.005Z,22.37
2019-03-17T10:00:36.989Z,22.41
2019-03-17T10:01:37.314Z,22.40
2019-03-17T10:02:36.968Z,22.34
2019-03-17T10:03:36.954Z,22.40
2019-03-17T10:04:36.949Z,22.38
2019-03-17T10:05:36.953Z,22.37
2019-03-17T10:06:36.924Z,22.43
2019-03-17T10:07:37.026Z,22.38
2019-03-17T10:08:36.905Z,22.37
2019-03-17T10:09:36.895Z,22.40
2019-03-17T10:10:36.881Z,22.38
2019-03-17T10:11:36.872Z,22.40
2019-03-17T10:12:36.868Z,22.36
2019-03-17T10:13:37.023Z,22.41
2019-03-17T10:14:36.908Z,22.40
2019-03-17T10:15:37.713Z,22.34
2019-03-17T10:16:36.826Z,22.40
2019-03-17T10:17:36.806Z,22.33
2019-03-17T10:18:36.795Z,22.36
2019-03-17T10:19:37.048Z,22.41
2019-03-17T10:20:36.771Z,22.34
2019-03-17T10:21:36.762Z,22.38
2019-03-17T10:22:38.769Z,22.38
2019-03-17T10:23:36.738Z,22.34
2019-03-17T10:24:36.751Z,22.36
2019-03-17T10:25:36.829Z,22.41
2019-03-17T10:26:36.712Z,22.36
2019-03-17T10:27:36.696Z,22.37
2019-03-17T10:28:36.690Z,22.36
2019-03-17T10:29:36.680Z,22.38
2019-03-17T10:30:36.669Z,22.38
2019-03-17T10:31:36.759Z,22.46
2019-03-17T10:32:36.662Z,22.40
2019-03-17T10:33:36.631Z,22.38
2019-03-17T10:34:36.625Z,22.38
2019-03-17T10:35:36.609Z,22.40
2019-03-17T10:36:37.215Z,22.37
2019-03-17T10:37:36.703Z,22.37
2019-03-17T10:38:36.578Z,22.40
2019-03-17T10:39:36.565Z,22.38
2019-03-17T10:40:36.554Z,22.36
2019-03-17T10:41:36.546Z,22.37
2019-03-17T10:42:36.535Z,22.43
2019-03-17T10:43:36.730Z,22.40
2019-03-17T10:44:36.516Z,22.43
2019-03-17T10:45:36.502Z,22.40
2019-03-17T10:46:36.499Z,22.46
2019-03-17T10:47:36.481Z,22.44
2019-03-17T10:48:36.470Z,22.49
2019-03-17T10:49:36.581Z,22.43
2019-03-17T10:50:48.741Z,22.47
2019-03-17T10:51:37.437Z,22.47
2019-03-17T10:52:36.429Z,22.46
2019-03-17T10:53:37.214Z,22.41
2019-03-17T10:54:36.409Z,22.44
2019-03-17T10:55:36.502Z,22.44
2019-03-17T10:56:36.387Z,22.40
2019-03-17T10:57:36.374Z,22.46
2019-03-17T10:58:36.369Z,22.49
2019-03-17T10:59:36.351Z,22.51
2019-03-17T11:00:36.340Z,22.46
2019-03-17T11:01:36.538Z,22.44
2019-03-17T11:02:36.326Z,22.52
2019-03-17T11:03:36.306Z,22.49
2019-03-17T11:04:36.301Z,22.46
2019-03-17T11:05:36.287Z,22.51
2019-03-17T11:06:36.282Z,22.47
2019-03-17T11:07:36.366Z,22.51
2019-03-17T11:08:36.255Z,22.47
2019-03-17T11:09:36.241Z,22.53
2019-03-17T11:10:36.231Z,22.46
2019-03-17T11:11:36.227Z,22.47
2019-03-17T11:12:36.206Z,22.51
2019-03-17T11:13:36.307Z,22.55
2019-03-17T11:14:36.187Z,22.51
2019-03-17T11:15:36.175Z,22.52
2019-03-17T11:16:36.162Z,22.52
2019-03-17T11:17:36.155Z,22.53
2019-03-17T11:18:36.145Z,22.47
2019-03-17T11:19:36.304Z,22.47
2019-03-17T11:20:36.125Z,22.58
2019-03-17T11:21:36.111Z,22.56
2019-03-17T11:22:36.100Z,22.51
2019-03-17T11:23:36.087Z,22.47
2019-03-17T11:24:36.078Z,22.49
2019-03-17T11:25:36.258Z,22.55
2019-03-17T11:26:36.063Z,22.44
2019-03-17T11:27:36.045Z,22.55
2019-03-17T11:28:36.037Z,22.53
2019-03-17T11:29:36.028Z,22.41
2019-03-17T11:30:36.017Z,22.49
2019-03-17T11:31:36.103Z,22.56
2019-03-17T11:32:35.998Z,22.53
2019-03-17T11:33:35.979Z,22.56
2019-03-17T11:34:35.985Z,22.51
2019-03-17T11:35:35.964Z,22.56
2019-03-17T11:36:35.946Z,22.49
2019-03-17T11:37:36.044Z,22.56
2019-03-17T11:38:35.943Z,22.55
2019-03-17T11:39:37.967Z,22.52
2019-03-17T11:40:35.904Z,22.51
2019-03-17T11:41:35.893Z,22.58
2019-03-17T11:42:35.881Z,22.53
2019-03-17T11:43:36.155Z,22.51
2019-03-17T11:44:35.860Z,22.44
2019-03-17T11:45:35.854Z,22.49
2019-03-17T11:46:35.858Z,22.52
2019-03-17T11:47:35.833Z,22.56
2019-03-17T11:48:35.817Z,22.47
2019-03-17T11:49:35.925Z,22.51
2019-03-17T11:50:35.799Z,22.51
2019-03-17T11:51:35.788Z,22.52
2019-03-17T11:52:35.779Z,22.56
2019-03-17T11:53:35.763Z,22.52
2019-03-17T11:54:35.756Z,22.52
2019-03-17T11:55:35.850Z,22.53
2019-03-17T11:56:35.753Z,22.51
2019-03-17T11:57:35.725Z,22.49
2019-03-17T11:58:35.707Z,22.55
2019-03-17T11:59:35.699Z,22.47
2019-03-17T12:00:35.687Z,22.47
2019-03-17T12:01:35.972Z,22.56
2019-03-17T12:02:35.664Z,22.59
2019-03-17T12:03:35.667Z,22.62
2019-03-17T12:04:35.653Z,22.55
2019-03-17T12:05:35.632Z,22.47
2019-03-17T12:06:35.622Z,22.59
2019-03-17T12:07:35.714Z,22.52
2019-03-17T12:08:35.601Z,22.56
2019-03-17T12:09:35.591Z,22.55
2019-03-17T12:10:35.580Z,22.56
2019-03-17T12:11:35.569Z,22.58
2019-03-17T12:12:35.564Z,22.58
2019-03-17T12:13:35.718Z,22.55
2019-03-17T12:14:35.544Z,22.65
2019-03-17T12:15:35.522Z,22.58
2019-03-17T12:16:35.519Z,22.63
2019-03-17T12:17:35.516Z,22.63
2019-03-17T12:18:35.493Z,22.61
2019-03-17T12:19:35.668Z,22.59
2019-03-17T12:20:35.473Z,22.67
2019-03-17T12:21:35.458Z,22.62
2019-03-17T12:22:35.460Z,22.70
2019-03-17T12:23:35.453Z,22.67
2019-03-17T12:24:35.431Z,22.70
2019-03-17T12:25:35.518Z,22.71
2019-03-17T12:26:35.408Z,22.68
2019-03-17T12:27:35.398Z,22.65
2019-03-17T12:28:35.383Z,22.65
2019-03-17T12:29:35.376Z,22.68
2019-03-17T12:30:35.360Z,22.65
2019-03-17T12:31:35.469Z,22.58
2019-03-17T12:32:35.356Z,22.67
2019-03-17T12:33:35.329Z,22.67
2019-03-17T12:34:35.330Z,22.58
2019-03-17T12:35:35.311Z,22.56
2019-03-17T12:36:35.293Z,22.59
2019-03-17T12:37:35.484Z,22.68
2019-03-17T12:38:35.286Z,22.59
2019-03-17T12:39:35.262Z,22.55
2019-03-17T12:40:35.255Z,22.59
2019-03-17T12:41:38.118Z,22.56
2019-03-17T12:42:35.240Z,22.56
2019-03-17T12:43:35.333Z,22.58
2019-03-17T12:44:35.728Z,22.55
2019-03-17T12:45:35.270Z,22.58
2019-03-17T12:46:35.188Z,22.62
2019-03-17T12:47:37.410Z,22.62
2019-03-17T12:48:35.169Z,22.58
2019-03-17T12:49:35.361Z,22.62
2019-03-17T12:50:35.150Z,22.62
2019-03-17T12:51:35.133Z,22.67
2019-03-17T12:52:35.128Z,22.63